Strona główna
METAR-TAF:

METAR-TAF

Lotnisko :

Japanese Ground Self Defense Force

Tokachi-Obihiro, Japonia

Szerokość geograficzna: 42-54N, Długość geograficzna: 143-10E, wysokość: 84 m

Aktualna obserwacja pogody

Raport powstał 6 godziny i 34 minut temu, godzina 11:50 UTC
Wiatr 8 kt od północny wschód
Temperatura 14°C
Wilgotność 94%
Ciśnienie 1012 hPa
Widzialność 10 km lub więcej
Mało chmury na wysokości 400 ft
Przerywane chmury na wysokości 800 ft
Przerywane chmury na wysokości 1000 ft

METAR: RJCT 191150Z 05008KT 9999 FEW004 BKN008 BKN010 14/13 Q1012 RMK 2ST004 5ST008 6ST010 A2990

czas: 03:24 (18:24 UTC)


TAF: brakujący

Obserwacja i prognoza pogody dla ponad 4000 lotnisk (raport METAR i TAF).

Dostępne stacje oznaczono żółtymi i czerwonymi punktami na mapie.

Najedź kursorem aby zobaczyć nazwę stacji.

Kliknij aby zobaczyć obserwacje i prognozy pogody.

Aby zmienić mapę: kliknij na zielony przycisk z czarnym krzyżykiem, aby powiększyć; na zielony przycisk z myślnikiem, aby pomniejszyć; na zielone strzałki, aby przejść do map sąsiednich.


METAR-TAF: